Seattle, WA

6:58 PM PST on February 07, 2016 (GMT -0800)
Belltown | | Change Station
CLOSE
Current Station
Personal Weather Station
Location: Seattle, WA
Elevation: 135 ft
Nearby Weather Stations

Elev 135 ft 47.61 °N, 122.35 °W | Updated 6 seconds ago

Mostly Cloudy
Mostly Cloudy
47.8 °F
Feels Like 48 °F
N
0.2
Wind Variable Wind from North
Gusts 2.5 mph

Today
High -- | Low -- °F
--% Chance of Precip.
Yesterday
High -- | Low -- °F
Precip. -- in
Pressure 30.53 in
Visibility 10.0 miles
Clouds Scattered Clouds 8000 ft
Windchill 48 °F
Dew Point 38 °F
Humidity 69%
Rainfall 0.00 in
Snow Depth Not available.
7:28 AM 5:19 PM
Waning Crescent, 0% visible
METAR KBFI 080253Z 31005KT 10SM SCT080 08/04 A3053 RMK AO2 SLP337 T00830039 58005
Pressure 30.53 in
Visibility 10.0 miles
Clouds Scattered Clouds 8000 ft
Windchill 48 °F
Dew Point 38 °F
Humidity 69%
Rainfall 0.00 in
Snow Depth Not available.
7:28 AM 5:19 PM
Waning Crescent, 0% visible
METAR KBFI 080253Z 31005KT 10SM SCT080 08/04 A3053 RMK AO2 SLP337 T00830039 58005

10-Day Weather Forecast

Almanac

Astronomy

Feb. 07, 2016 Rise Set
Actual Time
Civil Twilight
Nautical Twilight
Astronomical Twilight
Moon
Length of Visible Light
Length of Day
Tomorrow will be .
, % of the Moon is Illuminated

Today's Extremes

State Highs State Lows

Community

WunderPhotos

Upload Photos

1,891,373 photos uploaded!

WunderBlog® & News

Nearby

Air Quality

  Air Quality AQ Index Pollutant
Not available.

Snow Depth

Station Depth Elevation

Earthquake Activity

City Distance Mag. Time & Date
Minimum magnitude displayed is 2.5.

Coastal Water Temperatures

Place Temperature

Stations

Nearby Weather Stations

Station Location Temp. Windchill Dew Point Humidity Wind Precip. Elev Updated Type
                   

Watches & Warnings

There are currently no watches in effect.